createdAt,value
2022-10-17T00:02:08.684Z,1.15
2022-10-17T00:04:35.154Z,1.02
2022-10-17T00:07:01.536Z,1.30
2022-10-17T00:09:27.928Z,1.60
2022-10-17T00:11:54.279Z,1.33
2022-10-17T00:14:20.608Z,1.17
2022-10-17T00:16:46.993Z,1.02
2022-10-17T00:19:13.309Z,1.38
2022-10-17T00:21:39.684Z,1.10
2022-10-17T00:24:06.163Z,1.30
2022-10-17T00:26:32.648Z,0.85
2022-10-17T00:28:59.023Z,1.40
2022-10-17T00:31:25.455Z,1.10
2022-10-17T00:33:52.535Z,1.27
2022-10-17T00:36:20.384Z,1.27
2022-10-17T00:38:47.929Z,1.50
2022-10-17T00:41:17.023Z,1.38
2022-10-17T00:43:58.312Z,1.20
2022-10-17T00:46:26.175Z,1.23
2022-10-17T00:48:53.374Z,1.10
2022-10-17T00:51:21.247Z,1.17
2022-10-17T00:53:47.994Z,1.30
2022-10-17T00:56:15.214Z,1.05
2022-10-17T00:58:43.446Z,1.35
2022-10-17T01:01:09.885Z,1.00
2022-10-17T01:03:36.300Z,1.10
2022-10-17T01:06:02.721Z,1.08
2022-10-17T01:08:29.177Z,1.00
2022-10-17T01:11:05.217Z,1.13
2022-10-17T01:13:41.163Z,1.02
2022-10-17T01:16:22.635Z,1.20
2022-10-17T01:19:04.496Z,0.88
2022-10-17T01:21:54.260Z,1.08
2022-10-17T01:24:20.573Z,0.93
2022-10-17T01:26:59.528Z,1.20
2022-10-17T01:29:31.885Z,0.70
2022-10-17T01:32:01.870Z,0.93
2022-10-17T01:34:32.522Z,1.17
2022-10-17T01:37:17.721Z,1.00
2022-10-17T01:39:52.625Z,0.70
2022-10-17T01:42:23.281Z,1.00
2022-10-17T01:44:55.727Z,1.17
2022-10-17T01:47:25.613Z,1.40
2022-10-17T01:49:54.249Z,0.80
2022-10-17T01:52:23.683Z,0.95
2022-10-17T01:55:09.047Z,1.35
2022-10-17T01:57:41.357Z,1.10
2022-10-17T02:00:10.817Z,1.10
2022-10-17T02:02:41.207Z,0.90
2022-10-17T02:05:08.405Z,0.90
2022-10-17T02:07:34.801Z,0.70
2022-10-17T02:10:01.331Z,0.85
2022-10-17T02:12:31.831Z,1.10
2022-10-17T02:15:17.479Z,1.38
2022-10-17T02:17:48.701Z,0.93
2022-10-17T02:20:20.031Z,0.80
2022-10-17T02:23:16.539Z,1.15
2022-10-17T02:25:48.822Z,1.20
2022-10-17T02:28:19.380Z,0.90
2022-10-17T02:30:49.909Z,1.00
2022-10-17T02:33:19.344Z,0.80
2022-10-17T02:35:47.868Z,0.80
2022-10-17T02:38:14.782Z,0.95
2022-10-17T02:40:43.255Z,1.00
2022-10-17T02:43:09.997Z,1.00
2022-10-17T02:45:37.266Z,1.10
2022-10-17T02:48:09.837Z,0.77
2022-10-17T02:50:43.860Z,1.00
2022-10-17T02:53:14.111Z,1.33
2022-10-17T02:55:44.101Z,0.87
2022-10-17T02:58:16.606Z,0.82
2022-10-17T03:00:43.653Z,1.13
2022-10-17T03:03:21.099Z,0.82
2022-10-17T03:05:47.576Z,0.90
2022-10-17T03:08:13.963Z,0.77
2022-10-17T03:10:40.365Z,0.90
2022-10-17T03:13:06.795Z,0.80
2022-10-17T03:15:38.323Z,0.80
2022-10-17T03:18:04.693Z,0.70
2022-10-17T03:20:31.071Z,0.70
2022-10-17T03:22:57.422Z,0.90
2022-10-17T03:25:23.760Z,0.70
2022-10-17T03:27:50.185Z,0.80
2022-10-17T03:30:16.546Z,0.88
2022-10-17T03:32:42.927Z,0.95
2022-10-17T03:35:13.992Z,1.05
2022-10-17T03:37:43.832Z,0.73
2022-10-17T03:40:10.485Z,0.93
2022-10-17T03:42:36.858Z,1.00
2022-10-17T03:45:04.759Z,0.95
2022-10-17T03:47:31.484Z,1.05
2022-10-17T03:49:58.095Z,0.60
2022-10-17T03:52:24.714Z,0.93
2022-10-17T03:54:51.334Z,0.75
2022-10-17T03:57:21.625Z,0.50
2022-10-17T03:59:49.851Z,0.63
2022-10-17T04:02:18.758Z,1.00
2022-10-17T04:04:45.390Z,0.85
2022-10-17T04:07:11.757Z,0.73
2022-10-17T04:09:42.123Z,0.90
2022-10-17T04:12:12.537Z,0.65
2022-10-17T04:14:39.519Z,0.65
2022-10-17T04:17:05.868Z,0.50
2022-10-17T04:19:33.761Z,0.40
2022-10-17T04:22:00.190Z,0.73
2022-10-17T04:24:28.886Z,0.80
2022-10-17T04:27:20.152Z,0.40
2022-10-17T04:29:47.026Z,0.60
2022-10-17T04:32:20.864Z,0.60
2022-10-17T04:34:58.072Z,0.60
2022-10-17T04:37:24.497Z,0.50
2022-10-17T04:39:53.739Z,0.68
2022-10-17T04:42:20.249Z,0.70
2022-10-17T04:44:47.047Z,0.60
2022-10-17T04:47:16.030Z,0.80
2022-10-17T04:49:42.847Z,0.63
2022-10-17T04:52:10.584Z,0.80
2022-10-17T04:54:39.566Z,0.85
2022-10-17T04:57:08.801Z,0.88
2022-10-17T04:59:35.372Z,1.08
2022-10-17T05:02:13.004Z,0.80
2022-10-17T05:04:39.469Z,0.75
2022-10-17T05:07:06.616Z,0.80
2022-10-17T05:09:42.429Z,0.98
2022-10-17T05:12:10.391Z,0.63
2022-10-17T05:14:39.377Z,0.85
2022-10-17T05:17:05.785Z,0.63
2022-10-17T05:19:32.133Z,0.93
2022-10-17T05:21:59.034Z,0.90
2022-10-17T05:24:25.327Z,0.77
2022-10-17T05:26:52.059Z,0.77
2022-10-17T05:29:18.810Z,0.60
2022-10-17T05:31:50.311Z,0.75
2022-10-17T05:34:17.802Z,0.80
2022-10-17T05:36:44.566Z,0.70
2022-10-17T05:39:12.340Z,0.98
2022-10-17T05:41:40.179Z,0.60
2022-10-17T05:44:06.610Z,0.80
2022-10-17T05:46:41.878Z,0.80
2022-10-17T05:49:15.063Z,0.80
2022-10-17T05:51:56.317Z,1.17
2022-10-17T05:54:22.688Z,0.80
2022-10-17T05:56:52.833Z,0.93
2022-10-17T05:59:21.025Z,0.88
2022-10-17T06:01:55.430Z,1.00
2022-10-17T06:04:21.844Z,0.75
2022-10-17T06:06:48.259Z,0.70
2022-10-17T06:09:14.901Z,0.90
2022-10-17T06:11:44.608Z,0.95
2022-10-17T06:14:11.620Z,0.80
2022-10-17T06:16:39.441Z,1.05
2022-10-17T06:19:05.820Z,0.75
2022-10-17T06:21:36.368Z,0.80
2022-10-17T06:24:08.321Z,0.90
2022-10-17T06:26:36.831Z,0.65
2022-10-17T06:29:07.367Z,1.15
2022-10-17T06:31:38.374Z,0.95
2022-10-17T06:34:05.267Z,0.70
2022-10-17T06:36:31.610Z,0.90
2022-10-17T06:38:58.478Z,1.00
2022-10-17T06:41:32.778Z,0.75
2022-10-17T06:44:10.866Z,1.00
2022-10-17T06:46:46.590Z,0.80
2022-10-17T06:49:15.719Z,0.80
2022-10-17T06:51:47.284Z,0.75
2022-10-17T06:54:16.083Z,0.70
2022-10-17T06:56:48.715Z,0.90
2022-10-17T06:59:36.037Z,0.70
2022-10-17T07:02:16.937Z,0.80
2022-10-17T07:04:45.663Z,1.00
2022-10-17T07:07:12.225Z,0.73
2022-10-17T07:09:38.544Z,1.15
2022-10-17T07:12:07.946Z,0.85
2022-10-17T07:14:35.207Z,0.98
2022-10-17T07:17:01.996Z,0.80
2022-10-17T07:19:30.966Z,1.02
2022-10-17T07:21:57.295Z,1.05
2022-10-17T07:24:23.899Z,0.90
2022-10-17T07:26:58.334Z,1.13
2022-10-17T07:29:25.048Z,1.00
2022-10-17T07:32:14.591Z,0.93
2022-10-17T07:34:40.880Z,0.93
2022-10-17T07:37:09.965Z,0.90
2022-10-17T07:39:39.942Z,0.90
2022-10-17T07:42:07.629Z,0.80
2022-10-17T07:44:35.458Z,0.60
2022-10-17T07:47:02.210Z,0.80
2022-10-17T07:49:29.266Z,0.65
2022-10-17T07:51:55.758Z,0.90
2022-10-17T07:54:22.849Z,0.40
2022-10-17T07:56:50.670Z,0.70
2022-10-17T07:59:17.937Z,0.52
2022-10-17T08:01:44.294Z,0.70
2022-10-17T08:04:10.576Z,0.50
2022-10-17T08:06:37.087Z,0.45
2022-10-17T08:09:03.709Z,0.50
2022-10-17T08:11:29.995Z,1.38
2022-10-17T08:13:56.306Z,0.63
2022-10-17T08:16:22.575Z,0.40
2022-10-17T08:18:48.924Z,0.50
2022-10-17T08:21:15.217Z,0.40
2022-10-17T08:23:41.911Z,0.30
2022-10-17T08:26:10.501Z,1.10
2022-10-17T08:28:37.644Z,0.35
2022-10-17T08:31:04.888Z,0.30
2022-10-17T08:33:32.040Z,0.40
2022-10-17T08:35:58.835Z,0.40
2022-10-17T08:38:27.543Z,0.40
2022-10-17T08:40:56.293Z,0.52
2022-10-17T08:43:35.652Z,0.60
2022-10-17T08:46:03.543Z,0.50
2022-10-17T08:48:31.577Z,0.40
2022-10-17T08:51:00.583Z,0.32
2022-10-17T08:53:36.628Z,0.60
2022-10-17T08:56:07.146Z,0.75
2022-10-17T08:58:36.720Z,0.20
2022-10-17T09:01:23.999Z,0.38
2022-10-17T09:03:57.449Z,0.45
2022-10-17T09:06:45.939Z,0.45
2022-10-17T09:09:12.247Z,0.30
2022-10-17T09:11:47.300Z,0.60
2022-10-17T09:14:19.625Z,0.30
2022-10-17T09:16:53.432Z,0.50
2022-10-17T09:19:21.395Z,0.30
2022-10-17T09:21:57.195Z,0.50
2022-10-17T09:24:38.814Z,0.40
2022-10-17T09:27:05.846Z,0.30
2022-10-17T09:29:36.926Z,0.45
2022-10-17T09:32:11.302Z,0.40
2022-10-17T09:34:37.624Z,0.40
2022-10-17T09:37:09.563Z,0.63
2022-10-17T09:39:35.863Z,0.40
2022-10-17T09:42:02.850Z,0.28
2022-10-17T09:44:31.157Z,0.50
2022-10-17T09:47:09.794Z,0.40
2022-10-17T09:49:37.555Z,0.25
2022-10-17T09:52:04.912Z,0.30
2022-10-17T09:54:48.359Z,0.50
2022-10-17T09:57:15.527Z,0.40
2022-10-17T09:59:43.959Z,0.40
2022-10-17T10:02:13.610Z,0.50
2022-10-17T10:05:08.851Z,0.10
2022-10-17T10:07:39.347Z,0.30
2022-10-17T10:10:07.357Z,0.32
2022-10-17T10:12:35.174Z,0.57
2022-10-17T10:15:01.498Z,0.30
2022-10-17T10:17:29.746Z,0.28
2022-10-17T10:19:56.246Z,0.40
2022-10-17T10:22:25.611Z,0.40
2022-10-17T10:25:10.317Z,0.55
2022-10-17T10:27:36.935Z,0.50
2022-10-17T10:30:04.202Z,0.20
2022-10-17T10:32:34.755Z,0.55
2022-10-17T10:35:03.853Z,0.55
2022-10-17T10:37:33.840Z,0.13
2022-10-17T10:40:04.525Z,0.22
2022-10-17T10:42:40.319Z,0.20
2022-10-17T10:45:29.376Z,0.40
2022-10-17T10:48:03.544Z,0.20
2022-10-17T10:50:38.843Z,0.50
2022-10-17T10:53:13.861Z,0.20
2022-10-17T10:55:43.885Z,0.30
2022-10-17T10:58:26.220Z,0.22
2022-10-17T11:00:53.652Z,0.38
2022-10-17T11:03:23.176Z,0.20
2022-10-17T11:05:52.018Z,0.50
2022-10-17T11:08:22.770Z,0.40
2022-10-17T11:13:26.476Z,0.40
2022-10-17T11:15:59.992Z,0.30
2022-10-17T11:18:45.024Z,0.40
2022-10-17T11:21:11.446Z,0.45
2022-10-17T11:23:48.013Z,0.43
2022-10-17T11:26:27.083Z,0.40
2022-10-17T11:28:54.418Z,0.73
2022-10-17T11:31:21.953Z,0.30
2022-10-17T11:34:02.992Z,0.35
2022-10-17T11:36:30.602Z,0.30
2022-10-17T11:39:01.849Z,0.88
2022-10-17T11:41:34.364Z,0.30
2022-10-17T11:44:21.969Z,0.50
2022-10-17T11:46:50.474Z,0.40
2022-10-17T11:49:20.980Z,0.20
2022-10-17T11:52:01.473Z,0.45
2022-10-17T11:54:42.751Z,0.22
2022-10-17T11:57:37.318Z,0.38
2022-10-17T12:00:04.012Z,0.40
2022-10-17T12:02:40.714Z,0.47
2022-10-17T12:05:18.450Z,0.38
2022-10-17T12:07:55.208Z,0.40
2022-10-17T12:10:35.637Z,0.20
2022-10-17T12:13:20.560Z,0.20
2022-10-17T12:15:46.849Z,0.50
2022-10-17T12:18:17.231Z,0.40
2022-10-17T12:20:43.588Z,0.30
2022-10-17T12:23:13.002Z,0.25
2022-10-17T12:25:52.850Z,0.20
2022-10-17T12:28:24.734Z,0.30
2022-10-17T12:30:52.616Z,0.30
2022-10-17T12:33:23.549Z,0.20
2022-10-17T12:35:51.200Z,0.47
2022-10-17T12:38:17.488Z,0.17
2022-10-17T12:40:47.858Z,0.30
2022-10-17T12:43:15.370Z,0.40
2022-10-17T12:45:48.733Z,0.30
2022-10-17T12:48:33.939Z,0.40
2022-10-17T12:51:30.863Z,0.32
2022-10-17T12:53:53.808Z,0.30
2022-10-17T12:56:21.464Z,0.28
2022-10-17T12:58:48.842Z,0.20
2022-10-17T13:01:24.072Z,0.30
2022-10-17T13:03:52.529Z,0.32
2022-10-17T13:06:26.702Z,0.30
2022-10-17T13:09:01.047Z,0.20
2022-10-17T13:11:31.363Z,0.40
2022-10-17T13:13:59.139Z,0.20
2022-10-17T13:16:28.476Z,0.17
2022-10-17T13:18:55.102Z,0.40
2022-10-17T13:21:21.795Z,0.20
2022-10-17T13:23:50.709Z,0.20
2022-10-17T13:26:21.629Z,0.30
2022-10-17T13:29:04.686Z,0.20
2022-10-17T13:31:32.837Z,0.30
2022-10-17T13:34:00.902Z,0.20
2022-10-17T13:36:28.591Z,0.30
2022-10-17T13:38:55.070Z,0.10
2022-10-17T13:41:35.297Z,0.20
2022-10-17T13:44:04.239Z,0.20
2022-10-17T13:46:38.076Z,0.38
2022-10-17T13:49:10.698Z,0.30
2022-10-17T13:51:37.788Z,0.20
2022-10-17T13:54:16.825Z,0.40
2022-10-17T13:56:43.137Z,0.22
2022-10-17T13:59:18.907Z,0.30
2022-10-17T14:01:45.647Z,0.30
2022-10-17T14:04:19.511Z,0.57
2022-10-17T14:06:49.823Z,0.32
2022-10-17T14:09:22.974Z,0.30
2022-10-17T14:12:08.214Z,0.13
2022-10-17T14:14:51.723Z,0.30
2022-10-17T14:17:23.627Z,0.30
2022-10-17T14:20:06.519Z,0.30
2022-10-17T14:22:35.436Z,0.10
2022-10-17T14:25:02.705Z,0.20
2022-10-17T14:27:30.185Z,0.28
2022-10-17T14:30:00.869Z,0.30
2022-10-17T14:32:28.711Z,0.40
2022-10-17T14:35:05.577Z,0.10
2022-10-17T14:37:45.369Z,0.20
2022-10-17T14:40:18.833Z,0.40
2022-10-17T14:42:45.658Z,0.38
2022-10-17T14:45:13.813Z,0.13
2022-10-17T14:47:44.362Z,0.40
2022-10-17T14:50:10.768Z,0.20
2022-10-17T14:52:38.952Z,0.20
2022-10-17T14:55:23.396Z,0.35
2022-10-17T14:57:49.901Z,0.52
2022-10-17T15:00:17.257Z,0.30
2022-10-17T15:02:43.992Z,0.45
2022-10-17T15:05:13.233Z,0.30
2022-10-17T15:07:40.145Z,0.77
2022-10-17T15:10:06.724Z,0.40
2022-10-17T15:12:33.137Z,0.38
2022-10-17T15:14:59.452Z,0.52
2022-10-17T15:17:27.432Z,0.40
2022-10-17T15:19:54.038Z,0.25
2022-10-17T15:22:20.505Z,0.30
2022-10-17T15:24:47.125Z,0.20
2022-10-17T15:27:17.960Z,0.30
2022-10-17T15:32:10.566Z,0.30
2022-10-17T15:34:36.942Z,0.50
2022-10-17T15:37:04.275Z,0.28
2022-10-17T15:39:30.582Z,0.40
2022-10-17T15:41:56.928Z,0.30
2022-10-17T15:44:23.219Z,0.10
2022-10-17T15:46:49.576Z,0.30
2022-10-17T15:49:17.694Z,0.28
2022-10-17T15:51:44.135Z,0.45
2022-10-17T15:54:10.464Z,0.40
2022-10-17T15:56:43.261Z,0.30
2022-10-17T15:59:14.613Z,0.30
2022-10-17T16:01:41.590Z,0.50
2022-10-17T16:04:12.611Z,0.30
2022-10-17T16:06:39.142Z,0.45
2022-10-17T16:09:05.489Z,0.22
2022-10-17T16:11:39.498Z,0.40
2022-10-17T16:14:06.907Z,0.32
2022-10-17T16:16:33.517Z,0.25
2022-10-17T16:18:59.882Z,0.25
2022-10-17T16:21:27.665Z,0.30
2022-10-17T16:23:54.501Z,0.25
2022-10-17T16:26:21.039Z,0.50
2022-10-17T16:28:47.619Z,0.40
2022-10-17T16:31:24.640Z,0.38
2022-10-17T16:33:52.174Z,0.22
2022-10-17T16:36:18.560Z,0.20
2022-10-17T16:38:45.293Z,0.35
2022-10-17T16:41:18.899Z,0.30
2022-10-17T16:43:45.242Z,0.30
2022-10-17T16:46:11.576Z,0.30
2022-10-17T16:48:37.882Z,0.30
2022-10-17T16:51:04.277Z,0.30
2022-10-17T16:53:30.608Z,0.40
2022-10-17T16:56:03.894Z,0.22
2022-10-17T16:58:32.138Z,0.35
2022-10-17T17:01:05.829Z,0.38
2022-10-17T17:03:36.555Z,0.28
2022-10-17T17:06:03.171Z,0.38
2022-10-17T17:08:29.546Z,0.40
2022-10-17T17:10:55.897Z,0.40
2022-10-17T17:13:22.213Z,0.20
2022-10-17T17:15:53.527Z,0.40
2022-10-17T17:18:20.485Z,0.30
2022-10-17T17:20:47.588Z,0.60
2022-10-17T17:23:15.992Z,0.47
2022-10-17T17:25:42.523Z,0.30
2022-10-17T17:28:08.864Z,0.30
2022-10-17T17:30:35.537Z,0.50
2022-10-17T17:33:01.906Z,0.40
2022-10-17T17:35:28.525Z,0.68
2022-10-17T17:37:54.849Z,0.57
2022-10-17T17:40:21.164Z,0.20
2022-10-17T17:42:47.507Z,0.30
2022-10-17T17:45:14.033Z,0.60
2022-10-17T17:47:40.659Z,0.40
2022-10-17T17:50:07.192Z,0.68
2022-10-17T17:52:33.659Z,0.20
2022-10-17T17:54:59.999Z,0.40
2022-10-17T17:57:26.471Z,0.43
2022-10-17T17:59:52.750Z,0.60
2022-10-17T18:02:19.120Z,0.30
2022-10-17T18:04:45.467Z,0.40
2022-10-17T18:07:11.797Z,0.73
2022-10-17T18:09:38.077Z,0.43
2022-10-17T18:12:04.538Z,0.40
2022-10-17T18:14:30.840Z,0.47
2022-10-17T18:16:57.127Z,0.63
2022-10-17T18:19:23.804Z,0.70
2022-10-17T18:21:50.178Z,0.60
2022-10-17T18:24:16.510Z,0.70
2022-10-17T18:26:42.847Z,0.52
2022-10-17T18:29:09.195Z,0.50
2022-10-17T18:31:36.174Z,0.77
2022-10-17T18:34:03.330Z,0.57
2022-10-17T18:36:30.420Z,0.65
2022-10-17T18:38:56.972Z,0.70
2022-10-17T18:41:24.938Z,0.77
2022-10-17T18:43:51.920Z,0.63
2022-10-17T18:46:19.468Z,0.70
2022-10-17T18:48:47.017Z,0.52
2022-10-17T18:51:14.358Z,0.50
2022-10-17T18:53:41.656Z,0.60
2022-10-17T18:56:08.240Z,0.63
2022-10-17T18:58:34.540Z,0.63
2022-10-17T19:01:04.895Z,0.60
2022-10-17T19:03:31.720Z,0.50
2022-10-17T19:06:02.303Z,0.80
2022-10-17T19:08:28.602Z,0.60
2022-10-17T19:10:54.911Z,0.68
2022-10-17T19:13:21.733Z,0.80
2022-10-17T19:15:48.218Z,0.82
2022-10-17T19:18:14.628Z,0.60
2022-10-17T19:20:41.132Z,0.50
2022-10-17T19:23:07.436Z,0.63
2022-10-17T19:25:33.749Z,0.85
2022-10-17T19:28:00.086Z,0.63
2022-10-17T19:30:26.408Z,0.70
2022-10-17T19:32:52.865Z,0.88
2022-10-17T19:35:19.193Z,1.20
2022-10-17T19:37:45.525Z,1.17
2022-10-17T19:40:12.267Z,0.73
2022-10-17T19:42:38.614Z,0.63
2022-10-17T19:45:05.388Z,0.65
2022-10-17T19:47:31.735Z,1.17
2022-10-17T19:49:58.110Z,1.00
2022-10-17T19:52:24.418Z,0.80
2022-10-17T19:54:50.719Z,0.80
2022-10-17T19:57:17.043Z,0.70
2022-10-17T19:59:43.363Z,0.60
2022-10-17T20:02:10.675Z,0.82
2022-10-17T20:04:42.080Z,0.57
2022-10-17T20:07:16.117Z,0.80
2022-10-17T20:09:42.428Z,0.95
2022-10-17T20:12:08.728Z,0.80
2022-10-17T20:14:40.010Z,0.95
2022-10-17T20:17:07.264Z,0.82
2022-10-17T20:19:33.773Z,0.57
2022-10-17T20:22:00.111Z,1.52
2022-10-17T20:24:26.406Z,1.02
2022-10-17T20:26:52.773Z,1.20
2022-10-17T20:29:20.280Z,1.20
2022-10-17T20:31:46.968Z,0.90
2022-10-17T20:34:13.939Z,1.33
2022-10-17T20:36:40.752Z,1.08
2022-10-17T20:39:07.268Z,0.75
2022-10-17T20:41:34.062Z,1.10
2022-10-17T20:44:00.402Z,0.82
2022-10-17T20:46:52.705Z,0.98
2022-10-17T20:49:14.549Z,1.13
2022-10-17T20:51:41.195Z,0.68
2022-10-17T20:54:07.526Z,0.75
2022-10-17T20:56:34.727Z,0.68
2022-10-17T20:59:02.302Z,0.75
2022-10-17T21:01:29.544Z,0.65
2022-10-17T21:03:58.852Z,0.85
2022-10-17T21:06:27.260Z,0.77
2022-10-17T21:08:54.674Z,0.57
2022-10-17T21:11:22.106Z,1.00
2022-10-17T21:13:53.230Z,0.77
2022-10-17T21:16:19.801Z,0.90
2022-10-17T21:18:46.229Z,0.95
2022-10-17T21:21:14.343Z,0.93
2022-10-17T21:23:41.456Z,0.90
2022-10-17T21:26:09.661Z,1.00
2022-10-17T21:28:37.057Z,0.70
2022-10-17T21:31:11.010Z,0.90
2022-10-17T21:33:37.590Z,0.90
2022-10-17T21:36:04.357Z,1.00
2022-10-17T21:38:30.675Z,0.70
2022-10-17T21:40:56.998Z,1.00
2022-10-17T21:43:23.631Z,0.80
2022-10-17T21:45:49.938Z,1.05
2022-10-17T21:48:16.330Z,0.77
2022-10-17T21:50:42.667Z,0.90
2022-10-17T21:53:09.000Z,0.75
2022-10-17T21:55:36.187Z,1.00
2022-10-17T21:58:02.464Z,0.80
2022-10-17T22:00:28.966Z,0.85
2022-10-17T22:02:55.254Z,1.15
2022-10-17T22:05:21.711Z,0.95
2022-10-17T22:07:48.020Z,1.20
2022-10-17T22:10:14.372Z,0.90
2022-10-17T22:12:40.729Z,1.10
2022-10-17T22:15:07.347Z,0.93
2022-10-17T22:17:33.810Z,1.00
2022-10-17T22:20:00.163Z,0.90
2022-10-17T22:22:26.430Z,1.00
2022-10-17T22:24:52.749Z,1.00
2022-10-17T22:27:19.048Z,0.85
2022-10-17T22:29:45.369Z,0.77
2022-10-17T22:32:11.660Z,1.00
2022-10-17T22:34:37.955Z,0.70
2022-10-17T22:37:04.368Z,0.93
2022-10-17T22:39:30.729Z,1.55
2022-10-17T22:41:57.702Z,0.95
2022-10-17T22:44:24.024Z,1.02
2022-10-17T22:46:50.353Z,0.60
2022-10-17T22:49:16.928Z,0.93
2022-10-17T22:51:43.265Z,0.68
2022-10-17T22:54:09.579Z,0.63
2022-10-17T22:56:35.858Z,0.93
2022-10-17T22:59:02.260Z,1.02
2022-10-17T23:01:28.633Z,0.93
2022-10-17T23:03:55.084Z,1.02
2022-10-17T23:06:21.580Z,1.10
2022-10-17T23:08:48.239Z,0.93
2022-10-17T23:11:14.642Z,0.80
2022-10-17T23:13:41.133Z,0.93
2022-10-17T23:16:08.087Z,0.90
2022-10-17T23:18:34.428Z,1.00
2022-10-17T23:21:00.733Z,0.80
2022-10-17T23:23:27.080Z,1.05
2022-10-17T23:25:53.492Z,1.10
2022-10-17T23:28:19.795Z,1.17
2022-10-17T23:30:46.470Z,1.33
2022-10-17T23:33:13.396Z,1.02
2022-10-17T23:35:39.820Z,0.95
2022-10-17T23:38:06.350Z,1.05
2022-10-17T23:40:32.672Z,0.82
2022-10-17T23:42:58.984Z,0.88
2022-10-17T23:45:25.380Z,1.13
2022-10-17T23:47:51.716Z,0.90
2022-10-17T23:50:18.137Z,1.05
2022-10-17T23:52:44.486Z,1.10
2022-10-17T23:55:11.038Z,0.88
2022-10-17T23:57:37.427Z,1.02
